Time;durP1;ratioP1;P1;durP2;ratioP2;P2;SDS_P1;SDS_P2;PMS_P1;PMS_P2;Temp;Humidity;BMP_temperature;BMP_pressure;BME280_temperature;BME280_humidity;BME280_pressure;Samples;Min_cycle;Max_cycle;Signal;HPM_P1;HPM_P2
2024/03/01 00:00:31;;;;;;;40.15;13.70;;;;;;;-141.50;100.00;63355.56;4991361;28;20053;-82
2024/03/01 00:02:58;;;;;;;38.63;14.60;;;;;;;-141.50;100.00;63355.56;5007926;28;20512;-83
2024/03/01 00:05:24;;;;;;;40.10;13.63;;;;;;;-141.50;100.00;63355.56;4991701;28;20053;-83
2024/03/01 00:07:51;;;;;;;40.40;13.63;;;;;;;-141.50;100.00;63355.56;4989376;28;20057;-82
2024/03/01 00:10:18;;;;;;;43.00;13.13;;;;;;;-141.50;100.00;63355.56;5010276;28;20057;-81
2024/03/01 00:12:45;;;;;;;34.38;12.15;;;;;;;-141.50;100.00;63355.56;5008640;28;20480;-81
2024/03/01 00:15:12;;;;;;;38.97;12.55;;;;;;;-141.50;100.00;63355.56;5009058;28;20054;-82
2024/03/01 00:17:39;;;;;;;35.95;12.32;;;;;;;-141.50;100.00;63355.56;5010574;28;20567;-82
2024/03/01 00:20:06;;;;;;;39.83;12.95;;;;;;;-141.50;100.00;63355.56;5012932;28;20078;-82
2024/03/01 00:22:33;;;;;;;33.60;12.70;;;;;;;-141.50;100.00;63355.56;5013304;28;20054;-83
2024/03/01 00:25:00;;;;;;;42.75;12.20;;;;;;;-141.50;100.00;63355.56;5012794;28;20104;-82
2024/03/01 00:27:27;;;;;;;32.70;12.27;;;;;;;-141.50;100.00;63355.56;5023984;28;20072;-82
2024/03/01 00:29:53;;;;;;;35.00;11.70;;;;;;;-141.50;100.00;63355.56;5007372;28;20069;-84
2024/03/01 00:32:20;;;;;;;34.85;12.02;;;;;;;-141.50;100.00;63355.56;4997918;28;20104;-81
2024/03/01 00:34:47;;;;;;;32.97;13.07;;;;;;;-141.50;100.00;63355.56;5028791;28;20113;-81
2024/03/01 00:37:13;;;;;;;35.67;12.00;;;;;;;-141.50;100.00;63355.56;5029980;28;20062;-82
2024/03/01 00:39:41;;;;;;;35.58;12.60;;;;;;;-141.50;100.00;63355.56;5004422;28;20058;-82
2024/03/01 00:42:08;;;;;;;35.58;12.52;;;;;;;-141.50;100.00;63355.56;5000674;28;20061;-83
2024/03/01 00:44:35;;;;;;;32.63;12.30;;;;;;;-141.50;100.00;63355.56;5017706;28;20087;-81
2024/03/01 00:47:01;;;;;;;33.95;11.85;;;;;;;-141.50;100.00;63355.56;4999507;28;20050;-81
2024/03/01 00:49:28;;;;;;;37.33;13.00;;;;;;;-141.50;100.00;63355.56;5029674;28;20054;-82
2024/03/01 00:51:55;;;;;;;37.40;12.48;;;;;;;-141.50;100.00;63355.56;5001432;28;20479;-82
2024/03/01 00:54:22;;;;;;;31.58;11.90;;;;;;;-141.50;100.00;63355.56;4998943;28;20074;-81
2024/03/01 00:56:48;;;;;;;40.78;13.07;;;;;;;-141.50;100.00;63355.56;4995509;28;20100;-82
2024/03/01 00:59:15;;;;;;;43.17;12.93;;;;;;;-141.50;100.00;63355.56;5014908;28;20058;-83
2024/03/01 01:01:42;;;;;;;39.17;13.20;;;;;;;-141.50;100.00;63355.56;4997620;28;20084;-81
2024/03/01 01:04:09;;;;;;;40.72;13.20;;;;;;;-141.50;100.00;63355.56;4986647;28;20053;-80
2024/03/01 01:06:36;;;;;;;42.83;13.55;;;;;;;-141.50;100.00;63355.56;5023208;28;20122;-83
2024/03/01 01:09:03;;;;;;;37.38;13.73;;;;;;;-141.50;100.00;63355.56;5003665;28;20046;-83
2024/03/01 01:11:30;;;;;;;38.17;13.35;;;;;;;-141.50;100.00;63355.56;5021330;28;20068;-82
2024/03/01 01:13:57;;;;;;;41.75;13.77;;;;;;;-141.50;100.00;63355.56;5021413;28;20060;-83
2024/03/01 01:16:24;;;;;;;50.67;16.00;;;;;;;-141.50;100.00;63355.56;4986251;28;20062;-81
2024/03/01 01:18:53;;;;;;;37.85;12.90;;;;;;;-141.50;100.00;63355.56;5018649;28;20057;-81
2024/03/01 01:21:20;;;;;;;39.05;13.70;;;;;;;-141.50;100.00;63355.56;5020696;28;20073;-83
2024/03/01 01:23:47;;;;;;;43.47;14.48;;;;;;;-141.50;100.00;63355.56;5020709;28;20387;-78
2024/03/01 01:26:14;;;;;;;44.50;13.38;;;;;;;-141.50;100.00;63355.56;5016817;28;20120;-81
2024/03/01 01:28:41;;;;;;;39.65;13.23;;;;;;;-141.50;100.00;63355.56;4991249;28;20092;-82
2024/03/01 01:31:08;;;;;;;37.50;13.38;;;;;;;-141.50;100.00;63355.56;5009122;28;20057;-82
2024/03/01 01:33:35;;;;;;;41.22;13.77;;;;;;;-141.50;100.00;63355.56;5013395;28;20144;-81
2024/03/01 01:36:04;;;;;;;43.67;14.27;;;;;;;-141.50;100.00;63355.56;5019898;28;20057;-82
2024/03/01 01:38:30;;;;;;;40.70;14.38;;;;;;;-141.50;100.00;63355.56;5022660;28;20057;-83
2024/03/01 01:40:57;;;;;;;41.08;12.80;;;;;;;-141.50;100.00;63355.56;4997791;28;20061;-83
2024/03/01 01:43:26;;;;;;;42.28;13.25;;;;;;;-141.50;100.00;63355.56;5004410;28;20061;-83
2024/03/01 01:45:54;;;;;;;36.28;13.07;;;;;;;-141.50;100.00;63355.56;5014659;28;20057;-81
2024/03/01 01:48:21;;;;;;;42.08;12.60;;;;;;;-141.50;100.00;63355.56;5003139;28;20088;-81
2024/03/01 01:50:48;;;;;;;38.35;12.90;;;;;;;-141.50;100.00;63355.56;5018531;28;20060;-82
2024/03/01 01:53:17;;;;;;;44.97;13.38;;;;;;;-141.50;100.00;63355.56;5001706;28;20084;-81
2024/03/01 01:55:53;;;;;;;44.92;14.18;;;;;;;-141.50;100.00;63355.56;5001299;28;20050;-81
2024/03/01 01:58:20;;;;;;;39.38;13.07;;;;;;;-141.50;100.00;63355.56;5017576;28;20057;-81
2024/03/01 02:00:47;;;;;;;36.70;13.38;;;;;;;-141.50;100.00;63355.56;5015755;28;20052;-81
2024/03/01 02:03:18;;;;;;;43.80;13.75;;;;;;;-141.50;100.00;63355.56;5005547;28;20062;-83
2024/03/01 02:05:45;;;;;;;34.17;13.20;;;;;;;-141.50;100.00;63355.56;5010907;28;20146;-81
2024/03/01 02:08:12;;;;;;;40.28;13.00;;;;;;;-141.50;100.00;63355.56;5014169;28;20054;-83
2024/03/01 02:10:40;;;;;;;44.15;13.55;;;;;;;-141.50;100.00;63355.56;4991472;28;20523;-83
2024/03/01 02:13:17;;;;;;;35.60;12.90;;;;;;;-141.50;100.00;63355.56;5011496;28;20050;-82
2024/03/01 02:15:49;;;;;;;37.47;12.27;;;;;;;-141.50;100.00;63355.56;4993271;28;20062;-81
2024/03/01 02:18:16;;;;;;;34.97;12.50;;;;;;;-141.50;100.00;63355.56;5000646;28;20081;-81
2024/03/01 02:21:00;;;;;;;39.67;12.95;;;;;;;-141.50;100.00;63355.56;5029534;28;20053;-81
2024/03/01 02:23:28;;;;;;;34.22;12.52;;;;;;;-141.50;100.00;63355.56;5018508;28;20072;-84
2024/03/01 02:25:55;;;;;;;40.15;12.90;;;;;;;-141.50;100.00;63355.56;4998912;28;20136;-82
2024/03/01 02:28:21;;;;;;;41.13;12.75;;;;;;;-141.50;100.00;63355.56;5003766;28;20046;-80
2024/03/01 02:30:51;;;;;;;34.90;12.73;;;;;;;-141.50;100.00;63355.56;5025665;28;20076;-80
2024/03/01 02:33:21;;;;;;;35.90;12.00;;;;;;;-141.50;100.00;63355.56;5025691;28;20071;-82
2024/03/01 02:35:48;;;;;;;36.05;12.57;;;;;;;-141.50;100.00;63355.56;5022383;28;20067;-81
2024/03/01 02:38:16;;;;;;;36.33;11.52;;;;;;;-141.50;100.00;63355.56;5020848;28;20053;-82
2024/03/01 02:40:43;;;;;;;34.72;12.30;;;;;;;-141.50;100.00;63355.56;4998508;28;20112;-80
2024/03/01 02:43:10;;;;;;;36.55;11.75;;;;;;;-141.50;100.00;63355.56;4986156;28;20444;-82
2024/03/01 02:45:37;;;;;;;34.55;11.65;;;;;;;-141.50;100.00;63355.56;5014895;28;20477;-80
2024/03/01 02:48:05;;;;;;;39.97;13.50;;;;;;;-141.50;100.00;63355.56;5018583;28;20052;-83
2024/03/01 02:50:31;;;;;;;39.47;11.98;;;;;;;-141.50;100.00;63355.56;5016688;28;20072;-81
2024/03/01 02:52:58;;;;;;;32.28;12.57;;;;;;;-141.50;100.00;63355.56;4996172;28;20118;-82
2024/03/01 02:55:25;;;;;;;36.65;11.85;;;;;;;-141.50;100.00;63355.56;5015654;28;20050;-83
2024/03/01 02:57:54;;;;;;;38.38;12.80;;;;;;;-141.50;100.00;63355.56;4998287;28;20050;-83
2024/03/01 03:00:23;;;;;;;31.80;11.38;;;;;;;-141.50;100.00;63355.56;4997952;28;20046;-81
2024/03/01 03:02:53;;;;;;;35.90;11.98;;;;;;;-141.50;100.00;63355.56;5016402;28;20054;-83
2024/03/01 03:05:20;;;;;;;36.13;12.27;;;;;;;-141.50;100.00;63355.56;5016486;28;20057;-80
2024/03/01 03:07:47;;;;;;;36.47;13.13;;;;;;;-141.50;100.00;63355.56;5006535;28;20058;-83
2024/03/01 03:10:17;;;;;;;37.75;12.43;;;;;;;-141.50;100.00;63355.56;5015414;28;20050;-82
2024/03/01 03:12:44;;;;;;;31.23;11.32;;;;;;;-141.50;100.00;63355.56;5015795;28;20092;-82
2024/03/01 03:15:11;;;;;;;34.22;11.20;;;;;;;-141.50;100.00;63355.56;5010064;28;20069;-84
2024/03/01 03:17:39;;;;;;;33.20;12.18;;;;;;;-141.50;100.00;63355.56;5018711;28;20056;-78
2024/03/01 03:20:10;;;;;;;43.70;13.50;;;;;;;-141.50;100.00;63355.56;5031976;28;20045;-83
2024/03/01 03:22:44;;;;;;;32.97;11.98;;;;;;;-141.50;100.00;63355.56;4991653;28;20089;-83
2024/03/01 03:25:15;;;;;;;30.73;11.10;;;;;;;-141.50;100.00;63355.56;4999004;28;20655;-81
2024/03/01 03:27:43;;;;;;;35.67;12.48;;;;;;;-141.50;100.00;63355.56;5012099;28;20423;-82
2024/03/01 03:30:10;;;;;;;37.00;12.35;;;;;;;-141.50;100.00;63355.56;5013487;28;20143;-79
2024/03/01 03:32:37;;;;;;;36.33;11.10;;;;;;;-141.50;100.00;63355.56;5006868;28;20543;-81
2024/03/01 03:35:04;;;;;;;40.35;11.48;;;;;;;-141.50;100.00;63355.56;5012986;28;20053;-82
2024/03/01 03:37:32;;;;;;;33.03;11.35;;;;;;;-141.50;100.00;63355.56;5012039;28;20132;-81
2024/03/01 03:39:59;;;;;;;33.25;11.98;;;;;;;-141.50;100.00;63355.56;4994671;28;20052;-81
2024/03/01 03:42:26;;;;;;;32.53;11.25;;;;;;;-141.50;100.00;63355.56;4979818;28;20056;-83
2024/03/01 03:44:53;;;;;;;34.78;11.77;;;;;;;-141.50;100.00;63355.56;5012199;28;20550;-82
2024/03/01 03:47:20;;;;;;;34.72;12.10;;;;;;;-141.50;100.00;63355.56;5011004;28;20100;-83
2024/03/01 03:49:47;;;;;;;38.88;11.98;;;;;;;-141.50;100.00;63355.56;4993863;28;20054;-83
2024/03/01 03:52:14;;;;;;;40.80;12.27;;;;;;;-141.50;100.00;63355.56;5012135;28;20049;-82
2024/03/01 03:54:42;;;;;;;37.70;11.40;;;;;;;-141.50;100.00;63355.56;5011772;28;20440;-82
2024/03/01 03:57:09;;;;;;;37.38;11.63;;;;;;;-141.50;100.00;63355.56;4994888;28;20073;-82
2024/03/01 03:59:36;;;;;;;39.33;11.52;;;;;;;-141.50;100.00;63355.56;4993274;28;20050;-85
2024/03/01 04:02:03;;;;;;;32.58;10.82;;;;;;;-141.50;100.00;63355.56;5017489;28;20302;-81
2024/03/01 04:04:30;;;;;;;34.70;11.75;;;;;;;-141.50;100.00;63355.56;5023491;28;20056;-80
2024/03/01 04:06:57;;;;;;;34.83;11.73;;;;;;;-141.50;100.00;63355.56;5022340;28;20064;-80
2024/03/01 04:09:25;;;;;;;36.65;11.45;;;;;;;-141.50;100.00;63355.56;5006461;28;20054;-82
2024/03/01 04:11:52;;;;;;;32.25;10.98;;;;;;;-141.50;100.00;63355.56;5021940;28;20087;-82
2024/03/01 04:14:19;;;;;;;35.78;12.20;;;;;;;-141.50;100.00;63355.56;5012185;28;20056;-82
2024/03/01 04:16:46;;;;;;;35.05;11.35;;;;;;;-141.50;100.00;63355.56;5026101;28;20049;-81
2024/03/01 04:19:13;;;;;;;35.58;11.35;;;;;;;-141.50;100.00;63355.56;4999591;28;20062;-84
2024/03/01 04:21:41;;;;;;;33.53;11.93;;;;;;;-141.50;100.00;63355.56;4994053;28;20041;-82
2024/03/01 04:24:11;;;;;;;34.55;12.02;;;;;;;-141.50;100.00;63355.56;4996215;28;20050;-84
2024/03/01 04:26:39;;;;;;;33.20;11.35;;;;;;;-141.50;100.00;63355.56;5011233;28;20066;-82
2024/03/01 04:29:06;;;;;;;32.80;11.52;;;;;;;-141.50;100.00;63355.56;4994012;28;20052;-81
2024/03/01 04:31:33;;;;;;;31.63;11.25;;;;;;;-141.50;100.00;63355.56;5011075;28;20049;-81
2024/03/01 04:34:04;;;;;;;31.10;10.93;;;;;;;-141.50;100.00;63355.56;5009327;28;20129;-80
2024/03/01 04:36:31;;;;;;;33.85;11.68;;;;;;;-141.50;100.00;63355.56;5009313;28;20050;-81
2024/03/01 04:38:58;;;;;;;34.60;10.55;;;;;;;-141.50;100.00;63355.56;4997275;28;20137;-84
2024/03/01 04:41:25;;;;;;;38.95;11.55;;;;;;;-141.50;100.00;63355.56;5007716;28;20526;-83
2024/03/01 04:43:51;;;;;;;27.58;10.23;;;;;;;-141.50;100.00;63355.56;4991326;28;20056;-82
2024/03/01 04:46:18;;;;;;;37.03;11.35;;;;;;;-141.50;100.00;63355.56;5011208;28;20054;-84
2024/03/01 04:48:46;;;;;;;31.55;11.70;;;;;;;-141.50;100.00;63355.56;5009123;28;20235;-84
2024/03/01 04:51:16;;;;;;;35.30;11.40;;;;;;;-141.50;100.00;63355.56;5012428;28;20060;-80
2024/03/01 04:53:43;;;;;;;29.85;11.27;;;;;;;-141.50;100.00;63355.56;5019504;28;20199;-80
2024/03/01 04:56:10;;;;;;;31.80;11.07;;;;;;;-141.50;100.00;63355.56;4999795;28;20062;-83
2024/03/01 04:58:37;;;;;;;36.55;11.02;;;;;;;-141.50;100.00;63355.56;5025975;28;20030;-82
2024/03/01 05:01:04;;;;;;;28.98;9.68;;;;;;;-141.50;100.00;63355.56;5010821;28;20038;-82
2024/03/01 05:03:33;;;;;;;33.13;10.80;;;;;;;-141.50;100.00;63355.56;5010476;28;20054;-80
2024/03/01 05:06:03;;;;;;;36.35;11.35;;;;;;;-141.50;100.00;63355.56;4994545;28;20424;-82
2024/03/01 05:08:30;;;;;;;30.77;11.00;;;;;;;-141.50;100.00;63355.56;4991762;28;20062;-82
2024/03/01 05:10:57;;;;;;;31.63;10.38;;;;;;;-141.50;100.00;63355.56;5005599;28;20058;-81
2024/03/01 05:13:24;;;;;;;36.38;11.40;;;;;;;-141.50;100.00;63355.56;5014713;28;20486;-79
2024/03/01 05:15:51;;;;;;;33.60;11.82;;;;;;;-141.50;100.00;63355.56;5024458;28;20117;-84
2024/03/01 05:18:18;;;;;;;33.97;11.85;;;;;;;-141.50;100.00;63355.56;5018760;28;20081;-81
2024/03/01 05:20:45;;;;;;;28.27;10.43;;;;;;;-141.50;100.00;63355.56;4990748;28;20046;-82
2024/03/01 05:23:13;;;;;;;31.35;11.48;;;;;;;-141.50;100.00;63355.56;5002046;28;20116;-83
2024/03/01 05:25:42;;;;;;;27.50;9.95;;;;;;;-141.50;100.00;63355.56;5008889;28;20118;-83
2024/03/01 05:28:09;;;;;;;29.92;10.80;;;;;;;-141.50;100.00;63355.56;4982098;28;20045;-83
2024/03/01 05:30:37;;;;;;;34.92;11.30;;;;;;;-141.50;100.00;63355.56;5008814;28;20076;-81
2024/03/01 05:33:17;;;;;;;38.58;10.10;;;;;;;-141.50;100.00;63355.56;5016634;28;20113;-80
2024/03/01 05:35:44;;;;;;;30.70;10.70;;;;;;;-141.50;100.00;63355.56;5014752;28;20046;-80
2024/03/01 05:38:11;;;;;;;28.02;10.90;;;;;;;-141.50;100.00;63355.56;5011995;28;20467;-83
2024/03/01 05:40:37;;;;;;;30.85;10.43;;;;;;;-141.50;100.00;63355.56;5010691;28;20045;-82
2024/03/01 05:43:21;;;;;;;32.97;10.52;;;;;;;-141.50;100.00;63355.56;4994057;28;20061;-81
2024/03/01 05:45:48;;;;;;;33.60;9.88;;;;;;;-141.50;100.00;63355.56;5000007;28;20049;-80
2024/03/01 05:48:16;;;;;;;34.03;10.52;;;;;;;-141.50;100.00;63355.56;5018931;28;20077;-80
2024/03/01 05:50:43;;;;;;;28.67;10.02;;;;;;;-141.50;100.00;63355.56;5002022;28;20065;-81
2024/03/01 05:53:14;;;;;;;36.97;11.18;;;;;;;-141.50;100.00;63355.56;5016248;28;20275;-82
2024/03/01 05:55:42;;;;;;;28.58;10.07;;;;;;;-141.50;100.00;63355.56;5010968;28;20045;-80
2024/03/01 05:58:10;;;;;;;34.78;10.50;;;;;;;-141.50;100.00;63355.56;5015040;28;20049;-80
2024/03/01 06:00:42;;;;;;;26.33;9.43;;;;;;;-141.50;100.00;63355.56;5013968;28;20483;-81
2024/03/01 06:03:10;;;;;;;34.22;10.98;;;;;;;-141.50;100.00;63355.56;5016902;28;20570;-84
2024/03/01 06:05:36;;;;;;;29.58;11.27;;;;;;;-141.50;100.00;63355.56;5013540;28;20046;-79
2024/03/01 06:08:03;;;;;;;32.10;10.90;;;;;;;-141.50;100.00;63355.56;5013267;28;20056;-82
2024/03/01 06:10:30;;;;;;;29.20;10.27;;;;;;;-141.50;100.00;63355.56;4990041;28;20046;-82
2024/03/01 06:12:57;;;;;;;29.35;11.38;;;;;;;-141.50;100.00;63355.56;5026209;28;20053;-81
2024/03/01 06:15:26;;;;;;;33.65;11.43;;;;;;;-141.50;100.00;63355.56;4994981;28;20053;-81
2024/03/01 06:17:53;;;;;;;33.55;11.57;;;;;;;-141.50;100.00;63355.56;5000279;28;20057;-82
2024/03/01 06:20:19;;;;;;;28.90;10.82;;;;;;;-141.50;100.00;63355.56;4990345;28;20060;-81
2024/03/01 06:22:46;;;;;;;39.38;10.82;;;;;;;-141.50;100.00;63355.56;4990372;28;20412;-82
2024/03/01 06:25:13;;;;;;;30.83;11.13;;;;;;;-141.50;100.00;63355.56;4992739;28;20050;-81
2024/03/01 06:27:40;;;;;;;39.28;12.60;;;;;;;-141.50;100.00;63355.56;5008972;28;20092;-80
2024/03/01 06:30:07;;;;;;;27.67;11.38;;;;;;;-141.50;100.00;63355.56;5009934;28;20041;-79
2024/03/01 06:32:34;;;;;;;33.40;11.45;;;;;;;-141.50;100.00;63355.56;4992342;28;20530;-81
2024/03/01 06:35:03;;;;;;;32.80;11.43;;;;;;;-141.50;100.00;63355.56;5009415;28;20037;-81
2024/03/01 06:37:30;;;;;;;34.55;11.73;;;;;;;-141.50;100.00;63355.56;4990600;28;20041;-81
2024/03/01 06:39:57;;;;;;;32.42;11.90;;;;;;;-141.50;100.00;63355.56;4986609;28;20073;-82
2024/03/01 06:42:24;;;;;;;35.25;12.43;;;;;;;-141.50;100.00;63355.56;4993055;28;20424;-80
2024/03/01 06:44:50;;;;;;;33.05;12.50;;;;;;;-141.50;100.00;63355.56;4991634;28;20037;-81
2024/03/01 06:47:17;;;;;;;37.95;12.35;;;;;;;-141.50;100.00;63355.56;4992480;28;20050;-81
2024/03/01 06:49:48;;;;;;;34.50;12.20;;;;;;;-141.50;100.00;63355.56;4991237;28;20550;-80
2024/03/01 06:52:15;;;;;;;31.92;11.98;;;;;;;-141.50;100.00;63355.56;4997319;28;20056;-79
2024/03/01 06:54:45;;;;;;;35.58;11.52;;;;;;;-141.50;100.00;63355.56;4989151;28;20121;-82
2024/03/01 06:57:12;;;;;;;37.22;12.20;;;;;;;-141.50;100.00;63355.56;5013937;28;20046;-79
2024/03/01 06:59:39;;;;;;;40.45;12.70;;;;;;;-141.50;100.00;63355.56;4977575;28;20440;-79
2024/03/01 07:02:06;;;;;;;38.33;12.93;;;;;;;-141.50;100.00;63355.56;5012460;28;20749;-80
2024/03/01 07:04:33;;;;;;;37.30;12.85;;;;;;;-141.50;100.00;63355.56;5012272;28;20054;-81
2024/03/01 07:07:00;;;;;;;28.00;10.93;;;;;;;-141.50;100.00;63355.56;5011585;28;20080;-79
2024/03/01 07:09:26;;;;;;;27.00;10.57;;;;;;;-141.50;100.00;63355.56;5012123;28;20428;-82
2024/03/01 07:11:53;;;;;;;35.58;11.68;;;;;;;-141.50;100.00;63355.56;5013695;28;20045;-81
2024/03/01 07:14:20;;;;;;;39.72;12.73;;;;;;;-141.50;100.00;63355.56;5008518;28;20140;-81
2024/03/01 07:16:46;;;;;;;28.00;11.35;;;;;;;-141.50;100.00;63355.56;5007921;28;20057;-80
2024/03/01 07:19:13;;;;;;;28.63;11.13;;;;;;;-141.50;100.00;63355.56;4991002;28;20050;-78
2024/03/01 07:21:40;;;;;;;33.78;12.35;;;;;;;-141.50;100.00;63355.56;5007642;28;20042;-80
2024/03/01 07:24:07;;;;;;;41.92;13.77;;;;;;;-141.50;100.00;63355.56;4991909;28;20524;-81
2024/03/01 07:26:34;;;;;;;51.97;15.60;;;;;;;-141.50;100.00;63355.56;5008789;28;20073;-79
2024/03/01 07:29:02;;;;;;;70.00;19.73;;;;;;;-141.50;100.00;63355.56;4993705;28;20049;-82
2024/03/01 07:31:28;;;;;;;106.45;24.35;;;;;;;-141.50;100.00;63355.56;4994911;28;20049;-80
2024/03/01 07:33:55;;;;;;;81.50;22.42;;;;;;;-141.50;100.00;63355.56;4993126;28;20054;-81
2024/03/01 07:36:22;;;;;;;62.03;17.80;;;;;;;-141.50;100.00;63355.56;4992870;28;20140;-81
2024/03/01 07:38:49;;;;;;;56.72;14.63;;;;;;;-141.50;100.00;63355.56;4981310;28;20061;-79
2024/03/01 07:41:18;;;;;;;41.35;15.68;;;;;;;-141.50;100.00;63355.56;5013449;28;20057;-81
2024/03/01 07:43:46;;;;;;;56.80;18.25;;;;;;;-141.50;100.00;63355.56;5010562;28;20057;-82
2024/03/01 07:46:13;;;;;;;59.53;17.13;;;;;;;-141.50;100.00;63355.56;5010453;28;20064;-80
2024/03/01 07:48:43;;;;;;;59.50;17.35;;;;;;;-141.50;100.00;63355.56;5008749;28;20112;-79
2024/03/01 07:51:10;;;;;;;77.97;22.80;;;;;;;-141.50;100.00;63355.56;5009034;28;20057;-82
2024/03/01 07:53:41;;;;;;;81.70;23.70;;;;;;;-141.50;100.00;63355.56;5007877;28;20049;-80
2024/03/01 07:56:08;;;;;;;74.82;22.90;;;;;;;-141.50;100.00;63355.56;5013233;28;20107;-82
2024/03/01 07:58:35;;;;;;;73.35;21.45;;;;;;;-141.50;100.00;63355.56;5010544;28;20463;-80
2024/03/01 08:01:03;;;;;;;69.90;20.85;;;;;;;-141.50;100.00;63355.56;5007929;28;20050;-81
2024/03/01 08:03:30;;;;;;;62.40;19.73;;;;;;;-141.50;100.00;63355.56;5008676;28;20050;-78
2024/03/01 08:05:57;;;;;;;70.88;20.23;;;;;;;-141.50;100.00;63355.56;4984914;28;20567;-80
2024/03/01 08:08:33;;;;;;;51.55;17.00;;;;;;;-141.50;100.00;63355.56;5000699;28;20057;-80
2024/03/01 08:10:59;;;;;;;47.38;16.50;;;;;;;-141.50;100.00;63355.56;5011375;28;20538;-82
2024/03/01 08:13:26;;;;;;;45.30;15.13;;;;;;;-141.50;100.00;63355.56;4992561;28;20338;-82
2024/03/01 08:15:53;;;;;;;44.05;15.85;;;;;;;-141.50;100.00;63355.56;4993986;28;20470;-81
2024/03/01 08:18:24;;;;;;;39.85;13.30;;;;;;;-141.50;100.00;63355.56;5011432;28;20477;-81
2024/03/01 08:21:05;;;;;;;42.50;14.80;;;;;;;-141.50;100.00;63355.56;5013930;28;20071;-81
2024/03/01 08:23:40;;;;;;;40.03;15.45;;;;;;;-141.50;100.00;63355.56;5006274;28;20058;-83
2024/03/01 08:26:20;;;;;;;32.88;13.85;;;;;;;-141.50;100.00;63355.56;4994012;28;20513;-82
2024/03/01 08:28:48;;;;;;;38.80;13.23;;;;;;;-141.50;100.00;63355.56;4952421;28;1195285;-79
2024/03/01 08:31:29;;;;;;;39.75;13.77;;;;;;;-141.50;100.00;63355.56;5014228;28;20054;-81
2024/03/01 08:34:14;;;;;;;38.78;13.98;;;;;;;-141.50;100.00;63355.56;5010930;28;20046;-79
2024/03/01 08:36:41;;;;;;;34.03;14.02;;;;;;;-141.50;100.00;63355.56;5011268;28;20061;-81
2024/03/01 08:39:16;;;;;;;45.35;13.93;;;;;;;-141.50;100.00;63355.56;4994713;28;20058;-81
2024/03/01 08:41:55;;;;;;;51.63;17.38;;;;;;;-141.50;100.00;63355.56;5011157;28;20133;-80
2024/03/01 08:44:49;;;;;;;54.42;19.98;;;;;;;-141.50;100.00;63355.56;5011563;28;20108;-80
2024/03/01 08:47:24;;;;;;;43.22;15.93;;;;;;;-141.50;100.00;63355.56;4985561;28;20050;-80
2024/03/01 08:49:51;;;;;;;52.67;19.02;;;;;;;-141.50;100.00;63355.56;5011166;28;20081;-81
2024/03/01 08:52:39;;;;;;;44.20;15.95;;;;;;;-141.50;100.00;63355.56;5010024;28;20086;-80
2024/03/01 08:55:09;;;;;;;37.08;14.45;;;;;;;-141.50;100.00;63355.56;5001805;28;20699;-80
2024/03/01 08:57:37;;;;;;;40.30;14.80;;;;;;;-141.50;100.00;63355.56;5009045;28;20081;-80
2024/03/01 09:00:35;;;;;;;40.10;14.77;;;;;;;-141.50;100.00;63355.56;4988781;28;20045;-79
2024/03/01 09:03:03;;;;;;;39.00;14.15;;;;;;;-141.50;100.00;63355.56;4980482;28;20039;-81
2024/03/01 09:05:30;;;;;;;49.25;15.65;;;;;;;-141.50;100.00;63355.56;4995204;28;20054;-84
2024/03/01 09:08:00;;;;;;;41.90;15.13;;;;;;;-141.50;100.00;63355.56;4995742;28;20524;-81
2024/03/01 09:10:27;;;;;;;35.80;13.88;;;;;;;-141.50;100.00;63355.56;4998616;28;20102;-81
2024/03/01 09:12:54;;;;;;;39.90;14.20;;;;;;;-141.50;100.00;63355.56;5008408;28;20062;-83
2024/03/01 09:15:25;;;;;;;36.88;14.07;;;;;;;-141.50;100.00;63355.56;5011257;28;20479;-82
2024/03/01 09:17:53;;;;;;;38.42;13.88;;;;;;;-141.50;100.00;63355.56;4993495;28;20049;-82
2024/03/01 09:20:36;;;;;;;35.58;13.40;;;;;;;-141.50;100.00;63355.56;5009817;28;20054;-83
2024/03/01 09:23:13;;;;;;;36.30;13.52;;;;;;;-141.50;100.00;63355.56;5001413;28;20097;-82
2024/03/01 09:25:49;;;;;;;38.13;14.25;;;;;;;-141.50;100.00;63355.56;4992010;28;20069;-83
2024/03/01 09:28:16;;;;;;;34.35;13.25;;;;;;;-141.50;100.00;63355.56;5009323;28;20061;-82
2024/03/01 09:30:46;;;;;;;35.60;13.50;;;;;;;-141.50;100.00;63355.56;5017300;28;20073;-78
2024/03/01 09:33:17;;;;;;;36.05;13.18;;;;;;;-141.50;100.00;63355.56;5012895;28;20041;-78
2024/03/01 09:35:50;;;;;;;33.28;13.02;;;;;;;-141.50;100.00;63355.56;4991687;28;20068;-79
2024/03/01 09:38:21;;;;;;;34.20;13.50;;;;;;;-141.50;100.00;63355.56;4992672;28;20061;-79
2024/03/01 09:40:50;;;;;;;35.75;12.20;;;;;;;-141.50;100.00;63355.56;4991491;28;20058;-82
2024/03/01 09:43:45;;;;;;;31.15;12.88;;;;;;;-141.50;100.00;63355.56;4991472;28;20419;-80
2024/03/01 09:46:35;;;;;;;36.15;12.63;;;;;;;-141.50;100.00;63355.56;5004618;28;20057;-81
2024/03/01 09:49:11;;;;;;;36.03;12.63;;;;;;;-141.50;100.00;63355.56;5002807;28;20073;-83
2024/03/01 09:52:02;;;;;;;36.47;13.48;;;;;;;-141.50;100.00;63355.56;5009978;28;20054;-81
2024/03/01 09:54:48;;;;;;;36.20;12.27;;;;;;;-141.50;100.00;63355.56;5000395;28;20060;-80
2024/03/01 09:57:17;;;;;;;28.20;11.87;;;;;;;-141.50;100.00;63355.56;5005072;28;20046;-80
2024/03/01 10:00:11;;;;;;;42.50;13.20;;;;;;;-141.50;100.00;63355.56;5006004;28;20297;-80
2024/03/01 10:03:11;;;;;;;31.13;12.38;;;;;;;-141.50;100.00;63355.56;5001065;28;20116;-80
2024/03/01 10:05:53;;;;;;;29.52;12.27;;;;;;;-141.50;100.00;63355.56;5007590;28;20058;-81
2024/03/01 10:08:33;;;;;;;30.00;12.75;;;;;;;-141.50;100.00;63355.56;5004080;28;20504;-80
2024/03/01 10:11:12;;;;;;;34.22;13.07;;;;;;;-141.50;100.00;63355.56;4992972;28;20054;-81
2024/03/01 10:14:01;;;;;;;30.73;12.77;;;;;;;-141.50;100.00;63355.56;4989713;28;20081;-81
2024/03/01 10:16:46;;;;;;;30.35;11.43;;;;;;;-141.50;100.00;63355.56;5004610;28;20058;-79
2024/03/01 10:19:35;;;;;;;32.33;11.23;;;;;;;-141.50;100.00;63355.56;5006248;28;20042;-80
2024/03/01 10:22:13;;;;;;;27.10;11.32;;;;;;;-141.50;100.00;63355.56;4978663;28;20042;-81
2024/03/01 10:25:05;;;;;;;33.83;12.27;;;;;;;-141.50;100.00;63355.56;5003647;28;20112;-80
2024/03/01 10:27:41;;;;;;;26.58;11.27;;;;;;;-141.50;100.00;63355.56;5000954;28;20053;-79
2024/03/01 10:30:40;;;;;;;30.75;12.25;;;;;;;-141.50;100.00;63355.56;5002204;28;20512;-79
2024/03/01 10:33:19;;;;;;;38.95;13.85;;;;;;;-141.50;100.00;63355.56;5008631;28;20080;-80
2024/03/01 10:36:14;;;;;;;26.80;11.80;;;;;;;-141.50;100.00;63355.56;5009031;28;20054;-80
2024/03/01 10:39:19;;;;;;;27.33;11.32;;;;;;;-141.50;100.00;63355.56;5006794;28;20132;-80
2024/03/01 10:42:13;;;;;;;28.80;11.57;;;;;;;-141.50;100.00;63355.56;4985602;28;20061;-79
2024/03/01 10:44:50;;;;;;;25.40;10.18;;;;;;;-141.50;100.00;63355.56;5007461;28;20058;-80
2024/03/01 10:47:29;;;;;;;27.23;10.60;;;;;;;-141.50;100.00;63355.56;4992515;28;20042;-80
2024/03/01 10:50:07;;;;;;;24.83;11.10;;;;;;;-141.50;100.00;63355.56;5008766;28;20073;-80
2024/03/01 10:52:38;;;;;;;29.52;12.77;;;;;;;-141.50;100.00;63355.56;4990958;28;20041;-80
2024/03/01 10:55:24;;;;;;;31.67;11.07;;;;;;;-141.50;100.00;63355.56;4992551;28;20053;-80
2024/03/01 10:58:03;;;;;;;39.42;13.32;;;;;;;-141.50;100.00;63355.56;5009710;28;20171;-82
2024/03/01 11:00:35;;;;;;;32.35;12.27;;;;;;;-141.50;100.00;63355.56;5010057;28;20046;-79
2024/03/01 11:03:05;;;;;;;31.13;12.32;;;;;;;-141.50;100.00;63355.56;5012753;28;20125;-83
2024/03/01 11:05:38;;;;;;;33.08;13.32;;;;;;;-141.50;100.00;63355.56;5017086;28;20560;-82
2024/03/01 11:08:08;;;;;;;35.10;12.32;;;;;;;-141.50;100.00;63355.56;5007652;28;20185;-81